Time;durP1;ratioP1;P1;durP2;ratioP2;P2;SDS_P1;SDS_P2;PMS_P1;PMS_P2;Temp;Humidity;BMP_temperature;BMP_pressure;BME280_temperature;BME280_humidity;BME280_pressure;Samples;Min_cycle;Max_cycle;Signal;HPM_P1;HPM_P2
2022/08/13 00:01:15;;;;;;;3.00;2.80;;;16.80;96.30;;;;;;5013197;28;20716;-65
2022/08/13 00:03:42;;;;;;;4.97;2.78;;;16.90;97.10;;;;;;5024570;28;20192;-66
2022/08/13 00:06:10;;;;;;;4.68;2.97;;;17.00;95.90;;;;;;5033472;28;20218;-66
2022/08/13 00:08:38;;;;;;;4.28;2.67;;;17.00;94.40;;;;;;5033289;28;20206;-65
2022/08/13 00:11:06;;;;;;;6.32;3.47;;;17.00;96.30;;;;;;5032492;28;20199;-68
2022/08/13 00:13:33;;;;;;;4.22;3.00;;;17.10;95.90;;;;;;5032935;28;20550;-66
2022/08/13 00:16:02;;;;;;;5.82;2.72;;;17.10;95.10;;;;;;5032606;28;20614;-66
2022/08/13 00:18:30;;;;;;;3.13;2.92;;;17.10;96.40;;;;;;5033032;28;20302;-66
2022/08/13 00:20:58;;;;;;;5.30;3.20;;;16.50;99.90;;;;;;5028350;28;20709;-66
2022/08/13 00:23:27;;;;;;;4.50;3.00;;;16.30;99.90;;;;;;5032658;28;20199;-66
2022/08/13 00:25:56;;;;;;;4.32;3.17;;;15.90;99.90;;;;;;5032749;28;20662;-66
2022/08/13 00:28:28;;;;;;;4.47;2.90;;;16.10;99.90;;;;;;5032380;28;20290;-66
2022/08/13 00:30:55;;;;;;;3.80;2.95;;;16.30;99.90;;;;;;5026092;28;20564;-66
2022/08/13 00:33:24;;;;;;;5.63;2.88;;;16.40;99.90;;;;;;5017544;28;20203;-66
2022/08/13 00:35:53;;;;;;;4.05;3.20;;;16.60;99.90;;;;;;5032046;28;20210;-66
2022/08/13 00:38:22;;;;;;;3.63;2.97;;;16.70;99.90;;;;;;5032360;28;20199;-66
2022/08/13 00:40:51;;;;;;;6.05;3.63;;;16.60;99.90;;;;;;5032217;28;20232;-66
2022/08/13 00:43:18;;;;;;;6.90;4.00;;;16.60;99.90;;;;;;5032309;28;20563;-66
2022/08/13 00:45:45;;;;;;;4.05;3.10;;;16.30;99.90;;;;;;5032575;28;20217;-66
2022/08/13 00:50:59;;;;;;;3.25;3.05;;;15.10;99.90;;;;;;5029776;28;20670;-66
2022/08/13 00:53:30;;;;;;;4.65;3.95;;;15.20;99.90;;;;;;5021520;28;20200;-66
2022/08/13 00:55:58;;;;;;;25.38;19.05;;;15.50;99.90;;;;;;5032635;28;20232;-66
2022/08/13 00:58:28;;;;;;;34.03;28.20;;;15.70;99.90;;;;;;5032226;28;20200;-66
2022/08/13 01:00:57;;;;;;;5.57;4.00;;;15.90;99.90;;;;;;5032227;28;20273;-66
2022/08/13 01:03:25;;;;;;;7.40;3.30;;;15.80;99.90;;;;;;5031509;28;20725;-66
2022/08/13 01:05:53;;;;;;;9.43;5.88;;;15.60;99.90;;;;;;5032060;28;20676;-66
2022/08/13 01:08:22;;;;;;;11.77;6.95;;;15.70;99.90;;;;;;5032080;28;20732;-66
2022/08/13 01:10:50;;;;;;;7.85;4.95;;;15.90;99.90;;;;;;5031781;28;20206;-66
2022/08/13 01:13:19;;;;;;;8.25;4.05;;;15.90;99.90;;;;;;5031980;28;20216;-66
2022/08/13 01:15:47;;;;;;;5.75;3.70;;;15.70;99.90;;;;;;5032056;28;20208;-66
2022/08/13 01:18:14;;;;;;;5.93;4.32;;;15.30;99.90;;;;;;5032181;28;20207;-66
2022/08/13 01:20:46;;;;;;;5.68;3.83;;;15.30;99.90;;;;;;5018059;28;20259;-66
2022/08/13 01:23:15;;;;;;;4.53;3.70;;;15.30;99.90;;;;;;5012293;28;20204;-66
2022/08/13 01:25:44;;;;;;;5.47;3.88;;;15.30;99.90;;;;;;5027946;28;20206;-66
2022/08/13 01:28:12;;;;;;;4.45;3.50;;;15.60;99.90;;;;;;5032327;28;20535;-66
2022/08/13 01:30:45;;;;;;;4.10;3.70;;;15.60;99.90;;;;;;5031298;28;20242;-66
2022/08/13 01:33:14;;;;;;;5.63;3.97;;;15.50;99.90;;;;;;5032172;28;20212;-66
2022/08/13 01:35:42;;;;;;;6.07;4.20;;;15.50;99.90;;;;;;5031382;28;20249;-66
2022/08/13 01:38:10;;;;;;;6.05;4.55;;;15.60;99.90;;;;;;5017601;28;20196;-66
2022/08/13 01:40:38;;;;;;;6.68;4.57;;;15.70;99.90;;;;;;5028376;28;20216;-66
2022/08/13 01:43:06;;;;;;;8.00;4.35;;;15.60;99.90;;;;;;5031730;28;20200;-66
2022/08/13 01:45:34;;;;;;;7.22;4.55;;;15.80;99.90;;;;;;5031583;28;20650;-66
2022/08/13 01:50:47;;;;;;;7.53;4.63;;;15.90;99.90;;;;;;5028802;28;20202;-66
2022/08/13 01:53:16;;;;;;;6.07;3.95;;;16.00;99.90;;;;;;5031616;28;20207;-66
2022/08/13 01:55:46;;;;;;;5.35;3.95;;;15.80;99.90;;;;;;5031652;28;20295;-66
2022/08/13 01:58:17;;;;;;;5.53;3.40;;;15.50;99.90;;;;;;5031684;28;20200;-66
2022/08/13 02:00:45;;;;;;;8.82;3.70;;;15.60;99.90;;;;;;5017461;28;20224;-66
2022/08/13 02:03:12;;;;;;;4.32;3.92;;;15.40;99.90;;;;;;5035636;28;20720;-66
2022/08/13 02:05:40;;;;;;;6.25;3.45;;;14.90;99.90;;;;;;5035058;28;20711;-66
2022/08/13 02:08:09;;;;;;;7.88;4.15;;;15.00;99.90;;;;;;5035385;28;20568;-66
2022/08/13 02:10:37;;;;;;;4.60;4.20;;;14.90;99.90;;;;;;5035069;28;20651;-66
2022/08/13 02:13:07;;;;;;;5.82;3.50;;;14.80;99.90;;;;;;5035456;28;20214;-66
2022/08/13 02:15:34;;;;;;;6.63;3.85;;;14.60;99.90;;;;;;5035288;28;20646;-66
2022/08/13 02:18:03;;;;;;;4.50;4.10;;;14.70;99.90;;;;;;5035109;28;20572;-66
2022/08/13 02:20:34;;;;;;;4.32;3.60;;;14.90;99.90;;;;;;5023139;28;20331;-66
2022/08/13 02:23:01;;;;;;;6.18;3.65;;;14.90;99.90;;;;;;5016398;28;20200;-66
2022/08/13 02:25:30;;;;;;;4.40;3.80;;;15.00;99.90;;;;;;5032382;28;20196;-70
2022/08/13 02:27:57;;;;;;;5.05;4.13;;;15.00;99.90;;;;;;5034838;28;20200;-70
2022/08/13 02:30:29;;;;;;;4.95;3.90;;;15.20;99.90;;;;;;5034859;28;20674;-70
2022/08/13 02:32:56;;;;;;;8.13;4.20;;;15.00;99.90;;;;;;5034851;28;20290;-70
2022/08/13 02:35:23;;;;;;;6.68;3.92;;;15.00;99.90;;;;;;5024778;28;20219;-70
2022/08/13 02:37:50;;;;;;;7.60;4.05;;;15.20;99.90;;;;;;5020494;28;20208;-70
2022/08/13 02:43:02;;;;;;;9.90;4.13;;;14.40;99.90;;;;;;5034443;28;20218;-70
2022/08/13 02:45:30;;;;;;;4.95;3.88;;;14.50;99.90;;;;;;5034915;28;20226;-70
2022/08/13 02:47:58;;;;;;;4.28;3.67;;;14.90;99.90;;;;;;5034528;28;20642;-70
2022/08/13 02:50:27;;;;;;;5.80;3.40;;;15.00;99.90;;;;;;5034406;28;20654;-70
2022/08/13 02:52:54;;;;;;;6.13;4.17;;;14.40;99.90;;;;;;5033804;28;20235;-70
2022/08/13 02:55:22;;;;;;;7.10;4.37;;;14.60;99.90;;;;;;5032895;28;20655;-70
2022/08/13 02:57:50;;;;;;;4.40;3.73;;;14.70;99.90;;;;;;5034809;28;20208;-70
2022/08/13 03:00:20;;;;;;;4.37;3.97;;;14.40;99.90;;;;;;5034109;28;20277;-70
2022/08/13 03:02:49;;;;;;;5.77;4.03;;;13.90;99.90;;;;;;5034109;28;20196;-70
2022/08/13 03:05:18;;;;;;;6.97;4.23;;;14.00;99.90;;;;;;5024912;28;20204;-70
2022/08/13 03:07:47;;;;;;;7.23;4.33;;;14.50;99.90;;;;;;5030749;28;20206;-70
2022/08/13 03:10:16;;;;;;;4.60;4.10;;;14.50;99.90;;;;;;5033759;28;20283;-70
2022/08/13 03:12:46;;;;;;;5.83;3.90;;;14.30;99.90;;;;;;5020501;28;20208;-70
2022/08/13 03:15:15;;;;;;;6.37;4.27;;;14.20;99.90;;;;;;5018096;28;20200;-70
2022/08/13 03:17:43;;;;;;;6.50;4.60;;;14.40;99.90;;;;;;5034423;28;20199;-70
2022/08/13 03:20:15;;;;;;;6.70;3.87;;;14.50;99.90;;;;;;5028225;28;20435;-70
2022/08/13 03:22:53;;;;;;;4.70;4.20;;;14.20;99.90;;;;;;5034038;28;20283;-70
2022/08/13 03:25:21;;;;;;;8.00;4.73;;;14.00;99.90;;;;;;5033584;28;20206;-70
2022/08/13 03:27:48;;;;;;;8.03;5.40;;;14.30;99.90;;;;;;5027884;28;20208;-70
2022/08/13 03:30:17;;;;;;;9.43;5.57;;;14.30;99.90;;;;;;5016349;28;20212;-70
2022/08/13 03:32:45;;;;;;;12.57;6.20;;;14.60;99.90;;;;;;5033957;28;20685;-70
2022/08/13 03:35:16;;;;;;;10.63;6.07;;;14.50;99.90;;;;;;5030184;28;20208;-70
2022/08/13 03:37:46;;;;;;;12.53;6.27;;;14.50;99.90;;;;;;5016724;28;20199;-70
2022/08/13 03:40:15;;;;;;;11.47;6.60;;;14.50;99.90;;;;;;5033394;28;20238;-70
2022/08/13 03:42:42;;;;;;;11.10;6.40;;;14.60;99.90;;;;;;5033323;28;20208;-70
2022/08/13 03:45:10;;;;;;;12.23;6.40;;;14.60;99.90;;;;;;5033658;28;20206;-70
2022/08/13 03:47:38;;;;;;;11.03;5.70;;;14.80;99.90;;;;;;5033563;28;20561;-70
2022/08/13 03:50:07;;;;;;;9.43;5.77;;;14.80;99.90;;;;;;5032886;28;20200;-70
2022/08/13 03:52:36;;;;;;;10.43;6.83;;;15.00;99.90;;;;;;5033701;28;20196;-70
2022/08/13 03:55:08;;;;;;;10.47;4.50;;;14.90;99.90;;;;;;5033671;28;20211;-70
2022/08/13 03:57:39;;;;;;;7.90;4.80;;;14.80;99.90;;;;;;5033274;28;20207;-70
2022/08/13 04:00:09;;;;;;;7.47;4.40;;;14.80;99.90;;;;;;5032720;28;20210;-70
2022/08/13 04:02:40;;;;;;;6.50;4.50;;;14.80;99.90;;;;;;5033248;28;20223;-70
2022/08/13 04:05:11;;;;;;;6.60;4.77;;;14.80;99.90;;;;;;5028297;28;20200;-70
2022/08/13 04:07:39;;;;;;;4.93;4.07;;;14.80;99.90;;;;;;5033038;28;20199;-70
2022/08/13 04:10:07;;;;;;;6.33;4.50;;;14.80;99.90;;;;;;5032033;28;20207;-70
2022/08/13 04:12:34;;;;;;;5.30;4.03;;;14.80;99.90;;;;;;5033057;28;20222;-70
2022/08/13 04:15:01;;;;;;;7.93;4.47;;;14.60;99.90;;;;;;5032394;28;20204;-70
2022/08/13 04:17:28;;;;;;;7.32;4.63;;;14.60;99.90;;;;;;5033039;28;20199;-70
2022/08/13 04:19:55;;;;;;;6.03;4.50;;;14.40;99.90;;;;;;5032089;28;20212;-70
2022/08/13 04:22:23;;;;;;;5.23;4.03;;;14.50;99.90;;;;;;5032878;28;20595;-71
2022/08/13 04:24:51;;;;;;;6.00;4.03;;;14.90;99.90;;;;;;5031919;28;20204;-70
2022/08/13 04:27:18;;;;;;;7.67;3.90;;;15.10;99.90;;;;;;5032986;28;20211;-70
2022/08/13 04:29:44;;;;;;;14.53;4.50;;;15.30;99.90;;;;;;5032490;28;20195;-70
2022/08/13 04:32:11;;;;;;;3.97;3.57;;;15.30;99.90;;;;;;5032396;28;20200;-70
2022/08/13 04:34:39;;;;;;;24.13;6.13;;;15.30;99.90;;;;;;5029860;28;20208;-70
2022/08/13 04:37:08;;;;;;;30.27;7.10;;;15.30;99.90;;;;;;5026456;28;20204;-70
2022/08/13 04:39:35;;;;;;;9.50;4.43;;;15.30;99.90;;;;;;5032445;28;20203;-70
2022/08/13 04:42:07;;;;;;;22.53;4.93;;;14.90;99.90;;;;;;5032065;28;20219;-70
2022/08/13 04:44:34;;;;;;;19.10;5.60;;;14.90;99.90;;;;;;5032361;28;20210;-70
2022/08/13 04:47:05;;;;;;;5.88;4.07;;;15.00;99.90;;;;;;5032621;28;20214;-70
2022/08/13 04:49:32;;;;;;;4.30;3.90;;;15.00;99.90;;;;;;5032072;28;20208;-72
2022/08/13 04:51:59;;;;;;;6.20;3.87;;;14.80;99.90;;;;;;5032102;28;20207;-71
2022/08/13 04:54:28;;;;;;;8.43;4.47;;;15.00;99.90;;;;;;5029200;28;20215;-71
2022/08/13 04:56:55;;;;;;;6.90;4.15;;;15.00;99.90;;;;;;5032143;28;20570;-71
2022/08/13 04:59:23;;;;;;;5.72;3.78;;;15.00;99.90;;;;;;5022429;28;20220;-71
2022/08/13 05:01:50;;;;;;;5.40;3.63;;;15.20;99.90;;;;;;5030883;28;20277;-71
2022/08/13 05:04:17;;;;;;;7.37;3.70;;;15.60;99.90;;;;;;5030530;28;20200;-71
2022/08/13 05:06:45;;;;;;;5.50;3.70;;;15.60;99.90;;;;;;5012081;28;20211;-71
2022/08/13 05:09:11;;;;;;;5.70;3.85;;;15.60;99.90;;;;;;5012926;28;20196;-70
2022/08/13 05:11:38;;;;;;;3.65;3.30;;;15.90;99.90;;;;;;5012561;28;20560;-71
2022/08/13 05:14:05;;;;;;;5.93;3.80;;;16.20;99.90;;;;;;5012542;28;20211;-71
2022/08/13 05:16:33;;;;;;;3.88;3.30;;;16.60;99.90;;;;;;5019039;28;20676;-71
2022/08/13 05:19:03;;;;;;;7.53;4.00;;;16.40;99.90;;;;;;5032557;28;20216;-71
2022/08/13 05:21:33;;;;;;;7.68;3.85;;;16.50;99.90;;;;;;5012331;28;20228;-70
2022/08/13 05:23:59;;;;;;;4.68;3.42;;;16.80;99.90;;;;;;5012497;28;20204;-70
2022/08/13 05:26:31;;;;;;;5.50;3.53;;;16.50;99.90;;;;;;5021283;28;20207;-71
2022/08/13 05:29:04;;;;;;;4.75;3.38;;;16.50;99.90;;;;;;5026205;28;20314;-71
2022/08/13 05:31:33;;;;;;;3.97;3.25;;;16.50;99.90;;;;;;5028495;28;20192;-71
2022/08/13 05:34:03;;;;;;;16.77;11.05;;;16.70;99.90;;;;;;5031485;28;20200;-71
2022/08/13 05:36:30;;;;;;;6.05;4.25;;;16.80;99.90;;;;;;5035638;28;20214;-79
2022/08/13 05:39:11;;;;;;;5.97;4.30;;;16.80;99.90;;;;;;5037414;28;20274;-79
2022/08/13 05:41:37;;;;;;;3.80;3.20;;;16.90;99.90;;;;;;5037370;28;20571;-79
2022/08/13 05:44:04;;;;;;;4.30;3.40;;;17.00;99.90;;;;;;5037259;28;20562;-79
2022/08/13 05:49:55;;;;;;;4.80;3.50;;;17.10;99.90;;;;;;5037187;28;20167;-79
2022/08/13 05:52:23;;;;;;;7.85;3.58;;;17.20;99.90;;;;;;5035749;28;20650;-72
2022/08/13 05:54:50;;;;;;;3.88;3.55;;;17.20;99.90;;;;;;5035356;28;20207;-72
2022/08/13 05:57:17;;;;;;;4.82;3.97;;;17.10;99.90;;;;;;5035061;28;20262;-72
2022/08/13 06:05:14;;;;;;;4.70;3.78;;;17.50;99.90;;;;;;5034972;28;20206;-71
2022/08/13 06:07:42;;;;;;;4.72;3.72;;;17.60;99.90;;;;;;5035368;28;20310;-71
2022/08/13 06:10:10;;;;;;;5.57;4.05;;;17.70;99.90;;;;;;5034742;28;20279;-72
2022/08/13 06:12:38;;;;;;;5.93;3.95;;;17.70;99.90;;;;;;5035543;28;20651;-72
2022/08/13 06:15:09;;;;;;;4.00;3.60;;;17.70;99.90;;;;;;5024391;28;20223;-72
2022/08/13 06:17:37;;;;;;;4.32;3.38;;;17.80;99.90;;;;;;5035592;28;20298;-72
2022/08/13 06:20:07;;;;;;;4.20;3.88;;;17.90;99.90;;;;;;5026662;28;20220;-72
2022/08/13 06:22:35;;;;;;;6.82;4.20;;;18.10;99.90;;;;;;5027331;28;20686;-72
2022/08/13 06:25:06;;;;;;;16.20;10.68;;;18.20;99.90;;;;;;5034670;28;20199;-72
2022/08/13 06:27:33;;;;;;;6.78;5.30;;;18.20;99.90;;;;;;5035048;28;20282;-72
2022/08/13 06:30:01;;;;;;;6.18;4.05;;;18.30;99.90;;;;;;5031935;28;20199;-72
2022/08/13 06:32:31;;;;;;;5.10;3.88;;;18.30;99.90;;;;;;5031303;28;20199;-71
2022/08/13 06:34:59;;;;;;;4.32;3.65;;;18.40;99.90;;;;;;5020361;28;20208;-71
2022/08/13 06:37:26;;;;;;;4.78;3.88;;;18.70;99.90;;;;;;5028819;28;20254;-71
2022/08/13 06:39:57;;;;;;;4.60;3.67;;;18.90;99.90;;;;;;5030211;28;20244;-71
2022/08/13 06:42:24;;;;;;;5.35;3.70;;;19.00;99.90;;;;;;5025324;28;20251;-71
2022/08/13 06:44:53;;;;;;;4.15;3.72;;;19.30;99.90;;;;;;5022490;28;20211;-71
2022/08/13 06:47:21;;;;;;;7.97;4.22;;;19.40;96.70;;;;;;5027120;28;20580;-71
2022/08/13 06:49:48;;;;;;;5.80;3.45;;;19.80;97.10;;;;;;5029385;28;20654;-72
2022/08/13 06:52:15;;;;;;;5.13;3.78;;;19.90;90.80;;;;;;5023664;28;20208;-72
2022/08/13 06:54:42;;;;;;;6.13;3.63;;;20.00;88.40;;;;;;5026733;28;20204;-71
2022/08/13 06:57:11;;;;;;;4.78;4.10;;;20.20;79.60;;;;;;5029085;28;20662;-71
2022/08/13 06:59:39;;;;;;;5.82;3.42;;;20.40;66.30;;;;;;5032186;28;20666;-71
2022/08/13 07:02:08;;;;;;;6.55;3.70;;;20.40;68.90;;;;;;5029753;28;20230;-71
2022/08/13 07:04:35;;;;;;;5.43;3.50;;;20.40;65.40;;;;;;5031605;28;20216;-71
2022/08/13 07:07:03;;;;;;;5.82;3.60;;;20.60;67.10;;;;;;5025639;28;20208;-71
2022/08/13 07:09:33;;;;;;;10.70;3.92;;;21.30;55.20;;;;;;5027571;28;20204;-71
2022/08/13 07:12:00;;;;;;;8.38;4.03;;;21.20;51.80;;;;;;5020476;28;20643;-71
2022/08/13 07:14:28;;;;;;;4.57;3.70;;;21.50;52.70;;;;;;5027662;28;20208;-71
2022/08/13 07:16:59;;;;;;;5.25;3.75;;;21.40;53.10;;;;;;5029842;28;20569;-71
2022/08/13 07:19:25;;;;;;;6.07;3.90;;;21.30;52.40;;;;;;5026286;28;20203;-71
2022/08/13 07:21:52;;;;;;;4.22;3.47;;;21.40;50.30;;;;;;5026675;28;20216;-76
2022/08/13 07:24:19;;;;;;;7.75;3.35;;;21.30;50.60;;;;;;5029406;28;20685;-77
2022/08/13 07:26:47;;;;;;;4.57;3.33;;;21.30;56.80;;;;;;5029750;28;20280;-77
2022/08/13 07:29:14;;;;;;;6.40;3.50;;;21.10;51.90;;;;;;5033894;28;20700;-77
2022/08/13 07:31:43;;;;;;;3.38;3.08;;;21.20;51.70;;;;;;5028745;28;20551;-76
2022/08/13 07:34:10;;;;;;;4.55;3.40;;;21.70;51.20;;;;;;5026775;28;20215;-76
2022/08/13 07:36:40;;;;;;;5.45;3.40;;;21.70;46.90;;;;;;5030048;28;20673;-76
2022/08/13 07:39:09;;;;;;;6.88;3.70;;;21.60;47.70;;;;;;5031760;28;20238;-76
2022/08/13 07:41:40;;;;;;;4.20;3.80;;;21.70;50.50;;;;;;5033000;28;20208;-76
2022/08/13 07:44:09;;;;;;;6.95;4.03;;;21.60;49.50;;;;;;5033193;28;20210;-76
2022/08/13 07:46:42;;;;;;;7.28;4.05;;;21.60;48.30;;;;;;5031411;28;20294;-76
2022/08/13 07:49:12;;;;;;;4.97;3.67;;;21.70;53.10;;;;;;5033510;28;20214;-76
2022/08/13 07:51:39;;;;;;;6.63;3.88;;;21.70;48.90;;;;;;5031492;28;20680;-76
2022/08/13 07:54:07;;;;;;;3.97;3.58;;;21.90;47.20;;;;;;5031449;28;20204;-76
2022/08/13 07:56:34;;;;;;;6.28;4.10;;;22.00;48.40;;;;;;5030341;28;20196;-76
2022/08/13 07:59:04;;;;;;;8.73;4.50;;;22.20;47.10;;;;;;5031164;28;20200;-76
2022/08/13 08:01:33;;;;;;;8.00;5.00;;;22.20;47.70;;;;;;5030425;28;20210;-78
2022/08/13 08:04:04;;;;;;;6.30;4.30;;;22.50;46.80;;;;;;5032242;28;20196;-76
2022/08/13 08:06:33;;;;;;;8.45;5.18;;;22.60;46.70;;;;;;5029623;28;20214;-76
2022/08/13 08:09:00;;;;;;;10.25;5.00;;;22.70;41.00;;;;;;5031868;28;20200;-76
2022/08/13 08:14:12;;;;;;;11.93;5.55;;;22.90;39.80;;;;;;5038828;28;20374;-76
2022/08/13 08:16:44;;;;;;;11.63;5.35;;;23.10;39.40;;;;;;5029697;28;20210;-76
2022/08/13 08:19:14;;;;;;;10.73;5.55;;;23.00;39.50;;;;;;5030066;28;20203;-77
2022/08/13 08:21:42;;;;;;;11.98;5.68;;;23.30;40.70;;;;;;5030607;28;20196;-76
2022/08/13 08:24:11;;;;;;;11.43;5.72;;;23.30;40.10;;;;;;5027796;28;20204;-76
2022/08/13 08:26:38;;;;;;;10.68;5.53;;;23.50;40.50;;;;;;5030395;28;20208;-76
2022/08/13 08:29:08;;;;;;;10.57;5.55;;;23.60;38.10;;;;;;5025451;28;20209;-76
2022/08/13 08:31:39;;;;;;;10.07;4.65;;;23.60;37.60;;;;;;5027857;28;20236;-76
2022/08/13 08:34:07;;;;;;;6.03;4.55;;;23.80;35.70;;;;;;5024865;28;20204;-76
2022/08/13 08:36:39;;;;;;;7.60;5.07;;;24.00;38.60;;;;;;5027181;28;20212;-76
2022/08/13 08:44:58;;;;;;;6.47;4.03;;;24.50;33.80;;;;;;5019681;28;20257;-77
2022/08/13 08:47:29;;;;;;;7.10;4.07;;;24.70;35.10;;;;;;5029460;28;20250;-76
2022/08/13 08:49:58;;;;;;;4.95;4.30;;;24.60;34.80;;;;;;5031742;28;20206;-71
2022/08/13 08:53:19;;;;;;;6.15;4.07;;;24.60;34.00;;;;;;5019255;28;20204;-69
2022/08/13 08:55:16;;;;;;;5.45;4.25;;;24.80;32.60;;;;;;5023727;28;20211;-70
2022/08/13 08:57:46;;;;;;;4.13;3.72;;;24.80;36.30;;;;;;5024781;28;20215;-69
2022/08/13 09:00:15;;;;;;;4.82;3.33;;;25.20;34.60;;;;;;5027904;28;20238;-69
2022/08/13 09:02:45;;;;;;;3.88;3.53;;;25.20;32.90;;;;;;5023159;28;20286;-69
2022/08/13 09:05:14;;;;;;;5.43;3.90;;;25.40;33.90;;;;;;5025499;28;20204;-73
2022/08/13 09:07:46;;;;;;;5.28;3.53;;;25.60;35.00;;;;;;5022075;28;20201;-70
2022/08/13 09:10:16;;;;;;;5.03;3.75;;;25.80;30.00;;;;;;5022357;28;20258;-69
2022/08/13 09:12:44;;;;;;;5.30;3.60;;;26.00;29.80;;;;;;5027880;28;20200;-70
2022/08/13 09:15:13;;;;;;;4.13;3.80;;;26.30;29.00;;;;;;5021556;28;20196;-70
2022/08/13 09:17:41;;;;;;;5.05;3.55;;;26.60;29.00;;;;;;5023149;28;20214;-70
2022/08/13 09:20:12;;;;;;;6.82;3.90;;;27.10;31.10;;;;;;5023112;28;20215;-71
2022/08/13 09:22:41;;;;;;;4.22;3.83;;;27.20;28.10;;;;;;5027448;28;20279;-70
2022/08/13 09:25:10;;;;;;;4.03;3.70;;;27.70;28.60;;;;;;5020614;28;20555;-70
2022/08/13 09:27:38;;;;;;;4.13;3.78;;;27.70;27.30;;;;;;5026358;28;20204;-70
2022/08/13 09:30:06;;;;;;;4.30;3.90;;;27.70;26.80;;;;;;5019106;28;20215;-70
2022/08/13 09:32:33;;;;;;;4.47;4.07;;;27.80;27.10;;;;;;5024837;28;20204;-70
2022/08/13 09:35:01;;;;;;;4.47;4.03;;;27.90;26.50;;;;;;5017373;28;20210;-71
2022/08/13 09:37:30;;;;;;;8.43;4.57;;;28.10;25.00;;;;;;5022472;28;20200;-70
2022/08/13 09:40:05;;;;;;;4.50;4.10;;;28.20;26.20;;;;;;5026702;28;20204;-70
2022/08/13 09:42:37;;;;;;;5.00;4.03;;;28.60;27.80;;;;;;5026415;28;20219;-70
2022/08/13 09:45:07;;;;;;;6.55;4.68;;;28.40;26.10;;;;;;5023938;28;20203;-71
2022/08/13 09:47:34;;;;;;;6.32;5.00;;;29.20;26.30;;;;;;5022618;28;20196;-71
2022/08/13 09:50:01;;;;;;;5.88;4.20;;;29.80;24.20;;;;;;5027134;28;20214;-70
2022/08/13 09:52:28;;;;;;;4.70;4.30;;;28.90;23.70;;;;;;5017724;28;20212;-71
2022/08/13 09:54:57;;;;;;;5.13;4.40;;;28.60;24.50;;;;;;5022132;28;20204;-72
2022/08/13 09:57:25;;;;;;;4.50;4.20;;;28.90;24.00;;;;;;5021464;28;20262;-71
2022/08/13 09:59:52;;;;;;;7.25;5.00;;;28.80;25.10;;;;;;5030907;28;20216;-71
2022/08/13 10:02:21;;;;;;;5.75;5.15;;;29.10;24.50;;;;;;5019518;28;20205;-70
2022/08/13 10:04:53;;;;;;;4.68;4.25;;;29.10;24.00;;;;;;5028966;28;20253;-70
2022/08/13 10:07:20;;;;;;;8.60;5.90;;;28.80;24.90;;;;;;5017485;28;20212;-70
2022/08/13 10:09:48;;;;;;;5.78;5.28;;;28.90;25.90;;;;;;5024856;28;20215;-70
2022/08/13 10:12:15;;;;;;;6.82;5.03;;;28.80;25.60;;;;;;5022093;28;20208;-71
2022/08/13 10:14:42;;;;;;;6.50;5.28;;;28.90;26.60;;;;;;5022687;28;20207;-70
2022/08/13 10:17:08;;;;;;;5.60;5.05;;;28.80;26.00;;;;;;5024186;28;20262;-70
2022/08/13 10:19:37;;;;;;;5.60;5.10;;;29.10;26.00;;;;;;5024709;28;20204;-70
2022/08/13 10:22:03;;;;;;;7.93;5.15;;;29.20;24.60;;;;;;5014151;28;20204;-71
2022/08/13 10:24:30;;;;;;;10.68;5.50;;;29.30;26.20;;;;;;5026348;28;20547;-70
2022/08/13 10:26:57;;;;;;;7.18;5.38;;;28.70;25.30;;;;;;5031920;28;20203;-70
2022/08/13 10:29:24;;;;;;;5.90;5.20;;;28.80;25.40;;;;;;5026687;28;20200;-70
2022/08/13 10:31:51;;;;;;;5.43;4.93;;;29.00;24.40;;;;;;5029183;28;20203;-70
2022/08/13 10:34:22;;;;;;;5.80;5.30;;;29.20;25.70;;;;;;5025594;28;20651;-68
2022/08/13 10:36:50;;;;;;;5.75;4.68;;;29.50;26.00;;;;;;5033741;28;20199;-75
2022/08/13 10:39:17;;;;;;;5.55;5.05;;;29.10;23.20;;;;;;5028510;28;20201;-68
2022/08/13 10:41:44;;;;;;;6.32;5.03;;;29.00;24.90;;;;;;5029524;28;20817;-68
2022/08/13 10:44:13;;;;;;;6.25;5.32;;;29.10;24.30;;;;;;5027200;28;20220;-75
2022/08/13 10:46:41;;;;;;;6.32;5.18;;;29.50;24.00;;;;;;5036980;28;20546;-71
2022/08/13 10:49:10;;;;;;;5.53;5.03;;;29.60;21.50;;;;;;5024867;28;20564;-70
2022/08/13 10:51:37;;;;;;;6.15;5.40;;;29.80;21.80;;;;;;5018681;28;20204;-70
2022/08/13 10:54:07;;;;;;;6.13;5.38;;;30.10;21.40;;;;;;5026245;28;20243;-70
2022/08/13 10:56:34;;;;;;;5.70;5.20;;;29.70;22.10;;;;;;5030752;28;20291;-70
2022/08/13 10:59:04;;;;;;;5.50;4.72;;;29.90;20.00;;;;;;5026813;28;20215;-76
2022/08/13 11:01:32;;;;;;;5.75;5.25;;;29.60;18.90;;;;;;5032337;28;20314;-76
2022/08/13 11:04:02;;;;;;;5.53;5.03;;;29.80;19.90;;;;;;5030598;28;20224;-69
2022/08/13 11:06:29;;;;;;;5.10;4.60;;;30.10;20.10;;;;;;5024411;28;20204;-69
2022/08/13 11:08:59;;;;;;;5.20;4.80;;;29.40;22.70;;;;;;5020997;28;20374;-76
2022/08/13 11:11:28;;;;;;;5.82;5.22;;;29.60;21.50;;;;;;5023122;28;20207;-77
2022/08/13 11:13:55;;;;;;;6.63;4.90;;;29.90;21.80;;;;;;5026943;28;20277;-66
2022/08/13 11:19:14;;;;;;;5.70;5.18;;;30.30;21.90;;;;;;5020090;28;20584;-70
2022/08/13 11:21:42;;;;;;;6.57;5.50;;;30.00;20.70;;;;;;5024118;28;20221;-71
2022/08/13 11:24:09;;;;;;;5.75;4.70;;;30.40;20.50;;;;;;5023179;28;20310;-76
2022/08/13 11:26:37;;;;;;;5.68;4.88;;;30.30;19.80;;;;;;5024121;28;20270;-67
2022/08/13 11:29:05;;;;;;;6.35;5.25;;;30.50;20.30;;;;;;5028018;28;20209;-67
2022/08/13 11:31:32;;;;;;;5.65;5.13;;;31.20;19.20;;;;;;5017463;28;20257;-67
2022/08/13 11:33:59;;;;;;;5.88;5.13;;;31.40;15.90;;;;;;5021048;28;20216;-68
2022/08/13 11:36:26;;;;;;;5.25;4.75;;;30.80;18.30;;;;;;5022776;28;20247;-76
2022/08/13 11:38:53;;;;;;;5.82;5.32;;;30.80;16.90;;;;;;5027187;28;20247;-70
2022/08/13 11:41:20;;;;;;;6.30;5.45;;;30.60;17.90;;;;;;5019868;28;20262;-69
2022/08/13 11:43:49;;;;;;;6.22;5.20;;;30.80;15.80;;;;;;5023346;28;20681;-76
2022/08/13 11:46:16;;;;;;;6.75;6.03;;;31.50;14.90;;;;;;5018441;28;20209;-70
2022/08/13 11:48:43;;;;;;;5.57;5.07;;;31.70;11.70;;;;;;5022513;28;20328;-67
2022/08/13 11:51:11;;;;;;;5.93;5.32;;;31.10;13.10;;;;;;5018603;28;20247;-67
2022/08/13 11:53:38;;;;;;;6.40;5.90;;;30.50;13.70;;;;;;5016614;28;20295;-76
2022/08/13 11:56:06;;;;;;;9.32;5.47;;;30.50;14.40;;;;;;5024966;28;20204;-70
2022/08/13 11:58:34;;;;;;;6.28;5.57;;;30.40;14.10;;;;;;5030778;28;20611;-70
2022/08/13 12:01:06;;;;;;;6.28;5.35;;;30.60;15.00;;;;;;5022972;28;20215;-67
2022/08/13 12:03:34;;;;;;;6.75;5.80;;;30.20;14.50;;;;;;5024347;28;20239;-76
2022/08/13 12:06:01;;;;;;;6.63;6.07;;;30.50;14.40;;;;;;5022658;28;20204;-70
2022/08/13 12:08:28;;;;;;;6.30;5.80;;;30.30;14.20;;;;;;5019337;28;20254;-70
2022/08/13 12:10:55;;;;;;;6.63;6.03;;;29.90;14.70;;;;;;5026334;28;20208;-70
2022/08/13 12:13:22;;;;;;;7.97;6.32;;;29.90;14.70;;;;;;5027464;28;20192;-70
2022/08/13 12:15:49;;;;;;;7.57;5.90;;;30.40;14.90;;;;;;5029717;28;20212;-69
2022/08/13 12:18:19;;;;;;;7.28;6.57;;;30.60;12.60;;;;;;5019919;28;20207;-70
2022/08/13 12:20:46;;;;;;;7.15;6.43;;;30.40;13.20;;;;;;5025088;28;20203;-70
2022/08/13 12:23:13;;;;;;;6.82;6.22;;;30.20;12.30;;;;;;5032505;28;20246;-76
2022/08/13 12:25:40;;;;;;;6.68;5.90;;;30.30;15.20;;;;;;5036566;28;20621;-67
2022/08/13 12:28:12;;;;;;;12.18;6.80;;;30.50;14.60;;;;;;5025637;28;20215;-66
2022/08/13 12:30:39;;;;;;;6.85;6.22;;;30.00;14.20;;;;;;5022738;28;20258;-66
2022/08/13 12:33:07;;;;;;;6.07;5.47;;;29.80;14.00;;;;;;5017936;28;20287;-67
2022/08/13 12:35:36;;;;;;;7.10;5.90;;;29.70;15.70;;;;;;5014155;28;20663;-67
2022/08/13 12:38:07;;;;;;;9.07;6.32;;;30.10;16.00;;;;;;5024900;28;20315;-70
2022/08/13 12:40:34;;;;;;;6.82;6.10;;;30.00;13.70;;;;;;5026499;28;20247;-70
2022/08/13 12:43:01;;;;;;;8.38;6.10;;;30.20;13.80;;;;;;5026063;28;20240;-69
2022/08/13 12:45:28;;;;;;;7.45;6.43;;;30.50;14.10;;;;;;5020894;28;20252;-70
2022/08/13 12:47:55;;;;;;;8.57;6.13;;;30.80;14.10;;;;;;5021548;28;20204;-69
2022/08/13 12:50:22;;;;;;;8.35;5.93;;;30.70;12.10;;;;;;5029091;28;20254;-67
2022/08/13 12:52:51;;;;;;;6.93;6.25;;;30.80;12.60;;;;;;5020619;28;20603;-70
2022/08/13 12:55:18;;;;;;;7.43;6.25;;;31.60;12.00;;;;;;5022221;28;20208;-70
2022/08/13 12:57:45;;;;;;;6.43;5.88;;;32.50;10.90;;;;;;5025011;28;20215;-73
2022/08/13 13:00:12;;;;;;;7.05;6.30;;;32.10;11.40;;;;;;5027233;28;20598;-73
2022/08/13 13:02:39;;;;;;;7.35;6.25;;;31.40;10.50;;;;;;5022509;28;20298;-73
2022/08/13 13:05:07;;;;;;;8.65;6.03;;;30.80;12.00;;;;;;5031583;28;20227;-73
2022/08/13 13:07:34;;;;;;;7.55;6.35;;;30.10;12.00;;;;;;5021730;28;20573;-73
2022/08/13 13:10:02;;;;;;;6.90;5.90;;;29.90;13.50;;;;;;5025941;28;20218;-73
2022/08/13 13:12:29;;;;;;;5.70;5.05;;;29.50;13.10;;;;;;5024708;28;20196;-73
2022/08/13 13:14:56;;;;;;;7.35;6.05;;;29.60;15.90;;;;;;5024521;28;20207;-73
2022/08/13 13:17:23;;;;;;;6.93;5.82;;;29.40;15.50;;;;;;5022738;28;20557;-73
2022/08/13 13:19:50;;;;;;;7.03;6.35;;;29.30;15.30;;;;;;5021104;28;20725;-73